Station: Neuburg / Donau, ICAO: ETSN, Synop: Synop: 10853,
Koordinaten: 4843'00''N 01113'00''E, Hoehe: 380m, Entfernung: 14.03km
2017/12/12 07:20
ETSN 120720Z 26014KT 9999 BKN037 03/M03 Q1004 BLU BLU


Station: Ingolstadt, ICAO: ETSI, Synop: Synop: 10860,
Koordinaten: 4843'00''N 01132'00''E, Hoehe: 367m, Entfernung: 14.03km
2017/12/12 07:20
ETSI 120720Z 26020KT 9999 FEW020 BKN035 04/M03 Q1004 BLU BLU TEMPO WHT


Station: Augsburg, ICAO: EDMA, Synop: Synop: 10852,
Koordinaten: 4826'00''N 01056'00''E, Hoehe: 461m, Entfernung: 40.17km
2017/12/12 07:50
EDMA 120750Z 27010KT 240V300 9999 BKN035 02/M02 Q1005


Station: Munchen, ICAO: EDDM, Synop: Synop: 10866,
Koordinaten: 4821'00''N 01147'00''E, Hoehe: 453m, Entfernung: 44.55km
2017/12/12 08:20
EDDM 120820Z 28013KT 9999 FEW028 BKN037 03/M02 Q1006 NOSIG


Station: Fuerstenfeldbruck, ICAO: ETSF, Synop: Synop: 10858,
Koordinaten: 4812'00''N 01116'00''E, Hoehe: 519m, Entfernung: 50.18km
2007/10/09 05:44
ETSF 090544Z 19001KT 1500 R27/2300D BR FEW300 04/04 Q1024 BLACKAMB AMB BECMG YLO


Station: Erding, ICAO: ETSE, Synop: Synop: 10869,
Koordinaten: 4819'00''N 01157'00''E, Hoehe: 462m, Entfernung: 55.96km
2015/01/30 08:20
ETSE 300820Z 27013G23KT 1600 SHSNGS FEW006 BKN023 01/M01 Q0979 REGS YLO


mehr Wetter
WetterInfo - adds.pl 2.6.003 DL3EL © 2004-2017 [154882]